sensor_id;sensor_type;location;lat;lon;timestamp;P1;durP1;ratioP1;P2;durP2;ratioP2
3133;SDS011;1577;49.912;10.924;2023-06-01T00:02:19;5.03;;;1.90;;
3133;SDS011;1577;49.912;10.924;2023-06-01T00:04:45;4.60;;;1.87;;
3133;SDS011;1577;49.912;10.924;2023-06-01T00:07:13;5.83;;;2.10;;
3133;SDS011;1577;49.912;10.924;2023-06-01T00:09:38;4.27;;;2.07;;
3133;SDS011;1577;49.912;10.924;2023-06-01T00:12:04;4.00;;;1.87;;
3133;SDS011;1577;49.912;10.924;2023-06-01T00:14:30;5.83;;;2.03;;
3133;SDS011;1577;49.912;10.924;2023-06-01T00:16:56;3.60;;;1.90;;
3133;SDS011;1577;49.912;10.924;2023-06-01T00:19:22;3.17;;;1.67;;
3133;SDS011;1577;49.912;10.924;2023-06-01T00:21:50;4.00;;;1.90;;
3133;SDS011;1577;49.912;10.924;2023-06-01T00:24:18;4.47;;;2.07;;
3133;SDS011;1577;49.912;10.924;2023-06-01T00:26:45;4.43;;;2.00;;
3133;SDS011;1577;49.912;10.924;2023-06-01T00:29:10;4.13;;;2.50;;
3133;SDS011;1577;49.912;10.924;2023-06-01T00:31:36;4.30;;;1.80;;
3133;SDS011;1577;49.912;10.924;2023-06-01T00:34:01;4.77;;;2.20;;
3133;SDS011;1577;49.912;10.924;2023-06-01T00:36:27;2.90;;;1.67;;
3133;SDS011;1577;49.912;10.924;2023-06-01T00:38:52;3.00;;;1.70;;
3133;SDS011;1577;49.912;10.924;2023-06-01T00:41:18;6.00;;;1.70;;
3133;SDS011;1577;49.912;10.924;2023-06-01T00:43:43;4.60;;;1.97;;
3133;SDS011;1577;49.912;10.924;2023-06-01T00:46:09;6.10;;;1.77;;
3133;SDS011;1577;49.912;10.924;2023-06-01T00:48:36;3.90;;;2.17;;
3133;SDS011;1577;49.912;10.924;2023-06-01T00:51:02;3.20;;;1.90;;
3133;SDS011;1577;49.912;10.924;2023-06-01T00:53:28;3.77;;;1.70;;
3133;SDS011;1577;49.912;10.924;2023-06-01T00:55:53;2.90;;;1.70;;
3133;SDS011;1577;49.912;10.924;2023-06-01T00:58:19;4.37;;;1.80;;
3133;SDS011;1577;49.912;10.924;2023-06-01T01:00:45;5.47;;;2.20;;
3133;SDS011;1577;49.912;10.924;2023-06-01T01:03:13;4.80;;;2.23;;
3133;SDS011;1577;49.912;10.924;2023-06-01T01:05:38;4.90;;;1.90;;
3133;SDS011;1577;49.912;10.924;2023-06-01T01:10:55;4.20;;;2.03;;
3133;SDS011;1577;49.912;10.924;2023-06-01T01:13:41;4.53;;;2.07;;
3133;SDS011;1577;49.912;10.924;2023-06-01T01:16:24;3.27;;;1.80;;
3133;SDS011;1577;49.912;10.924;2023-06-01T01:21:32;3.43;;;1.90;;
3133;SDS011;1577;49.912;10.924;2023-06-01T01:26:52;6.30;;;2.37;;
3133;SDS011;1577;49.912;10.924;2023-06-01T01:29:31;2.70;;;1.60;;
3133;SDS011;1577;49.912;10.924;2023-06-01T01:31:59;3.77;;;2.00;;
3133;SDS011;1577;49.912;10.924;2023-06-01T01:34:25;4.77;;;2.53;;
3133;SDS011;1577;49.912;10.924;2023-06-01T01:36:53;3.40;;;1.80;;
3133;SDS011;1577;49.912;10.924;2023-06-01T01:39:19;4.00;;;1.53;;
3133;SDS011;1577;49.912;10.924;2023-06-01T01:41:45;5.30;;;1.87;;
3133;SDS011;1577;49.912;10.924;2023-06-01T01:44:11;3.63;;;2.13;;
3133;SDS011;1577;49.912;10.924;2023-06-01T01:46:52;5.53;;;1.83;;
3133;SDS011;1577;49.912;10.924;2023-06-01T01:49:27;4.80;;;2.37;;
3133;SDS011;1577;49.912;10.924;2023-06-01T01:52:10;6.47;;;2.40;;
3133;SDS011;1577;49.912;10.924;2023-06-01T01:54:44;4.77;;;1.90;;
3133;SDS011;1577;49.912;10.924;2023-06-01T01:57:12;4.80;;;2.27;;
3133;SDS011;1577;49.912;10.924;2023-06-01T01:59:39;5.10;;;2.20;;
3133;SDS011;1577;49.912;10.924;2023-06-01T02:02:06;4.90;;;1.80;;
3133;SDS011;1577;49.912;10.924;2023-06-01T02:04:31;5.80;;;2.10;;
3133;SDS011;1577;49.912;10.924;2023-06-01T02:06:57;5.07;;;2.23;;
3133;SDS011;1577;49.912;10.924;2023-06-01T02:09:23;2.90;;;1.83;;
3133;SDS011;1577;49.912;10.924;2023-06-01T02:11:48;8.40;;;2.10;;
3133;SDS011;1577;49.912;10.924;2023-06-01T02:14:14;5.73;;;2.40;;
3133;SDS011;1577;49.912;10.924;2023-06-01T02:16:40;4.90;;;2.30;;
3133;SDS011;1577;49.912;10.924;2023-06-01T02:19:06;3.30;;;2.40;;
3133;SDS011;1577;49.912;10.924;2023-06-01T02:21:35;3.83;;;2.20;;
3133;SDS011;1577;49.912;10.924;2023-06-01T02:24:01;5.43;;;1.87;;
3133;SDS011;1577;49.912;10.924;2023-06-01T02:26:30;4.17;;;1.93;;
3133;SDS011;1577;49.912;10.924;2023-06-01T02:28:56;5.60;;;2.30;;
3133;SDS011;1577;49.912;10.924;2023-06-01T02:31:23;11.23;;;3.50;;
3133;SDS011;1577;49.912;10.924;2023-06-01T02:33:48;3.90;;;2.17;;
3133;SDS011;1577;49.912;10.924;2023-06-01T02:36:15;4.77;;;2.30;;
3133;SDS011;1577;49.912;10.924;2023-06-01T02:38:41;6.00;;;2.20;;
3133;SDS011;1577;49.912;10.924;2023-06-01T02:41:07;3.00;;;1.83;;
3133;SDS011;1577;49.912;10.924;2023-06-01T02:43:36;2.87;;;1.83;;
3133;SDS011;1577;49.912;10.924;2023-06-01T02:46:01;4.23;;;2.20;;
3133;SDS011;1577;49.912;10.924;2023-06-01T02:48:28;3.97;;;1.90;;
3133;SDS011;1577;49.912;10.924;2023-06-01T02:50:54;4.87;;;2.50;;
3133;SDS011;1577;49.912;10.924;2023-06-01T02:53:20;5.63;;;2.47;;
3133;SDS011;1577;49.912;10.924;2023-06-01T02:55:46;5.27;;;2.17;;
3133;SDS011;1577;49.912;10.924;2023-06-01T02:58:11;4.43;;;2.80;;
3133;SDS011;1577;49.912;10.924;2023-06-01T03:00:44;4.50;;;2.60;;
3133;SDS011;1577;49.912;10.924;2023-06-01T03:03:10;5.40;;;2.47;;
3133;SDS011;1577;49.912;10.924;2023-06-01T03:05:36;6.17;;;2.30;;
3133;SDS011;1577;49.912;10.924;2023-06-01T03:08:02;3.90;;;2.37;;
3133;SDS011;1577;49.912;10.924;2023-06-01T03:10:29;6.80;;;3.00;;
3133;SDS011;1577;49.912;10.924;2023-06-01T03:12:54;4.27;;;2.30;;
3133;SDS011;1577;49.912;10.924;2023-06-01T03:15:20;4.80;;;3.03;;
3133;SDS011;1577;49.912;10.924;2023-06-01T03:17:46;5.50;;;2.70;;
3133;SDS011;1577;49.912;10.924;2023-06-01T03:20:11;3.83;;;2.50;;
3133;SDS011;1577;49.912;10.924;2023-06-01T03:22:43;5.03;;;2.40;;
3133;SDS011;1577;49.912;10.924;2023-06-01T03:25:10;4.10;;;2.53;;
3133;SDS011;1577;49.912;10.924;2023-06-01T03:27:37;4.10;;;2.67;;
3133;SDS011;1577;49.912;10.924;2023-06-01T03:30:04;6.13;;;3.10;;
3133;SDS011;1577;49.912;10.924;2023-06-01T03:32:35;6.20;;;2.60;;
3133;SDS011;1577;49.912;10.924;2023-06-01T03:35:04;5.67;;;2.87;;
3133;SDS011;1577;49.912;10.924;2023-06-01T03:37:32;4.00;;;2.80;;
3133;SDS011;1577;49.912;10.924;2023-06-01T03:40:02;5.53;;;2.70;;
3133;SDS011;1577;49.912;10.924;2023-06-01T03:42:35;4.27;;;2.90;;
3133;SDS011;1577;49.912;10.924;2023-06-01T03:45:05;7.00;;;2.73;;
3133;SDS011;1577;49.912;10.924;2023-06-01T03:47:31;4.90;;;2.77;;
3133;SDS011;1577;49.912;10.924;2023-06-01T03:49:57;5.03;;;2.90;;
3133;SDS011;1577;49.912;10.924;2023-06-01T03:52:23;7.53;;;2.70;;
3133;SDS011;1577;49.912;10.924;2023-06-01T03:54:50;6.77;;;3.20;;
3133;SDS011;1577;49.912;10.924;2023-06-01T03:57:16;5.60;;;2.53;;
3133;SDS011;1577;49.912;10.924;2023-06-01T03:59:41;7.20;;;3.80;;
3133;SDS011;1577;49.912;10.924;2023-06-01T04:02:07;7.00;;;2.70;;
3133;SDS011;1577;49.912;10.924;2023-06-01T04:04:34;6.27;;;3.37;;
3133;SDS011;1577;49.912;10.924;2023-06-01T04:07:01;5.03;;;3.10;;
3133;SDS011;1577;49.912;10.924;2023-06-01T04:09:28;4.73;;;2.67;;
3133;SDS011;1577;49.912;10.924;2023-06-01T04:11:54;5.33;;;2.60;;
3133;SDS011;1577;49.912;10.924;2023-06-01T04:14:20;8.13;;;2.80;;
3133;SDS011;1577;49.912;10.924;2023-06-01T04:16:46;8.80;;;3.10;;
3133;SDS011;1577;49.912;10.924;2023-06-01T04:19:12;7.03;;;3.00;;
3133;SDS011;1577;49.912;10.924;2023-06-01T04:21:37;4.90;;;2.77;;
3133;SDS011;1577;49.912;10.924;2023-06-01T04:24:03;6.70;;;2.70;;
3133;SDS011;1577;49.912;10.924;2023-06-01T04:26:29;8.03;;;2.63;;
3133;SDS011;1577;49.912;10.924;2023-06-01T04:28:56;6.03;;;3.20;;
3133;SDS011;1577;49.912;10.924;2023-06-01T04:31:23;3.93;;;2.70;;
3133;SDS011;1577;49.912;10.924;2023-06-01T04:33:49;4.60;;;2.33;;
3133;SDS011;1577;49.912;10.924;2023-06-01T04:36:20;6.27;;;3.60;;
3133;SDS011;1577;49.912;10.924;2023-06-01T04:38:47;4.40;;;3.30;;
3133;SDS011;1577;49.912;10.924;2023-06-01T04:41:17;6.93;;;3.03;;
3133;SDS011;1577;49.912;10.924;2023-06-01T04:43:45;3.43;;;2.80;;
3133;SDS011;1577;49.912;10.924;2023-06-01T04:46:16;6.63;;;3.10;;
3133;SDS011;1577;49.912;10.924;2023-06-01T04:48:43;5.20;;;2.83;;
3133;SDS011;1577;49.912;10.924;2023-06-01T04:51:09;3.80;;;2.53;;
3133;SDS011;1577;49.912;10.924;2023-06-01T04:53:35;3.97;;;2.50;;
3133;SDS011;1577;49.912;10.924;2023-06-01T04:56:01;6.03;;;2.50;;
3133;SDS011;1577;49.912;10.924;2023-06-01T04:58:26;7.80;;;2.70;;
3133;SDS011;1577;49.912;10.924;2023-06-01T05:00:52;5.10;;;2.83;;
3133;SDS011;1577;49.912;10.924;2023-06-01T05:03:19;4.17;;;2.23;;
3133;SDS011;1577;49.912;10.924;2023-06-01T05:05:45;5.93;;;2.47;;
3133;SDS011;1577;49.912;10.924;2023-06-01T05:08:11;6.40;;;3.10;;
3133;SDS011;1577;49.912;10.924;2023-06-01T05:10:37;4.73;;;2.70;;
3133;SDS011;1577;49.912;10.924;2023-06-01T05:13:03;5.10;;;2.70;;
3133;SDS011;1577;49.912;10.924;2023-06-01T05:15:29;7.13;;;2.90;;
3133;SDS011;1577;49.912;10.924;2023-06-01T05:17:55;4.00;;;2.40;;
3133;SDS011;1577;49.912;10.924;2023-06-01T05:20:21;3.97;;;2.57;;
3133;SDS011;1577;49.912;10.924;2023-06-01T05:22:47;6.50;;;2.80;;
3133;SDS011;1577;49.912;10.924;2023-06-01T05:25:12;7.33;;;2.90;;
3133;SDS011;1577;49.912;10.924;2023-06-01T05:27:38;6.43;;;2.80;;
3133;SDS011;1577;49.912;10.924;2023-06-01T05:30:04;4.23;;;2.63;;
3133;SDS011;1577;49.912;10.924;2023-06-01T05:32:31;3.03;;;2.40;;
3133;SDS011;1577;49.912;10.924;2023-06-01T05:34:57;8.67;;;2.97;;
3133;SDS011;1577;49.912;10.924;2023-06-01T05:37:22;4.60;;;2.87;;
3133;SDS011;1577;49.912;10.924;2023-06-01T05:39:48;10.50;;;2.87;;
3133;SDS011;1577;49.912;10.924;2023-06-01T05:42:13;9.13;;;3.23;;
3133;SDS011;1577;49.912;10.924;2023-06-01T05:44:39;6.50;;;2.90;;
3133;SDS011;1577;49.912;10.924;2023-06-01T05:47:05;3.53;;;2.20;;
3133;SDS011;1577;49.912;10.924;2023-06-01T05:49:31;4.50;;;2.93;;
3133;SDS011;1577;49.912;10.924;2023-06-01T05:51:56;4.60;;;2.50;;
3133;SDS011;1577;49.912;10.924;2023-06-01T05:54:23;3.60;;;2.20;;
3133;SDS011;1577;49.912;10.924;2023-06-01T05:56:48;4.63;;;2.60;;
3133;SDS011;1577;49.912;10.924;2023-06-01T05:59:14;3.50;;;2.13;;
3133;SDS011;1577;49.912;10.924;2023-06-01T06:01:40;4.83;;;2.53;;
3133;SDS011;1577;49.912;10.924;2023-06-01T06:04:07;6.73;;;2.90;;
3133;SDS011;1577;49.912;10.924;2023-06-01T06:06:32;7.23;;;2.70;;
3133;SDS011;1577;49.912;10.924;2023-06-01T06:08:58;4.63;;;2.67;;
3133;SDS011;1577;49.912;10.924;2023-06-01T06:11:23;4.60;;;2.43;;
3133;SDS011;1577;49.912;10.924;2023-06-01T06:13:51;9.23;;;2.80;;
3133;SDS011;1577;49.912;10.924;2023-06-01T06:16:16;3.80;;;2.37;;
3133;SDS011;1577;49.912;10.924;2023-06-01T06:18:42;9.53;;;2.80;;
3133;SDS011;1577;49.912;10.924;2023-06-01T06:21:07;4.00;;;2.40;;
3133;SDS011;1577;49.912;10.924;2023-06-01T06:23:33;7.70;;;2.67;;
3133;SDS011;1577;49.912;10.924;2023-06-01T06:25:58;6.70;;;2.13;;
3133;SDS011;1577;49.912;10.924;2023-06-01T06:28:24;4.80;;;2.60;;
3133;SDS011;1577;49.912;10.924;2023-06-01T06:30:51;5.93;;;2.07;;
3133;SDS011;1577;49.912;10.924;2023-06-01T06:33:17;4.53;;;2.50;;
3133;SDS011;1577;49.912;10.924;2023-06-01T06:35:42;3.07;;;1.53;;
3133;SDS011;1577;49.912;10.924;2023-06-01T06:38:09;3.47;;;2.30;;
3133;SDS011;1577;49.912;10.924;2023-06-01T06:40:36;4.07;;;2.13;;
3133;SDS011;1577;49.912;10.924;2023-06-01T06:43:01;3.67;;;1.90;;
3133;SDS011;1577;49.912;10.924;2023-06-01T06:45:27;4.27;;;2.30;;
3133;SDS011;1577;49.912;10.924;2023-06-01T06:47:53;3.03;;;1.77;;
3133;SDS011;1577;49.912;10.924;2023-06-01T06:50:18;3.17;;;1.73;;
3133;SDS011;1577;49.912;10.924;2023-06-01T06:52:45;5.67;;;1.53;;
3133;SDS011;1577;49.912;10.924;2023-06-01T06:55:10;4.73;;;2.33;;
3133;SDS011;1577;49.912;10.924;2023-06-01T06:57:36;2.90;;;2.00;;
3133;SDS011;1577;49.912;10.924;2023-06-01T07:00:04;3.43;;;1.80;;
3133;SDS011;1577;49.912;10.924;2023-06-01T07:02:31;4.10;;;1.60;;
3133;SDS011;1577;49.912;10.924;2023-06-01T07:04:57;2.30;;;1.63;;
3133;SDS011;1577;49.912;10.924;2023-06-01T07:07:22;2.70;;;1.60;;
3133;SDS011;1577;49.912;10.924;2023-06-01T07:09:48;2.10;;;1.33;;
3133;SDS011;1577;49.912;10.924;2023-06-01T07:12:13;2.70;;;1.30;;
3133;SDS011;1577;49.912;10.924;2023-06-01T07:14:40;2.50;;;1.60;;
3133;SDS011;1577;49.912;10.924;2023-06-01T07:17:05;4.73;;;1.40;;
3133;SDS011;1577;49.912;10.924;2023-06-01T07:19:31;5.17;;;1.50;;
3133;SDS011;1577;49.912;10.924;2023-06-01T07:21:58;9.13;;;2.07;;
3133;SDS011;1577;49.912;10.924;2023-06-01T07:24:25;4.30;;;1.70;;
3133;SDS011;1577;49.912;10.924;2023-06-01T07:26:51;2.60;;;1.40;;
3133;SDS011;1577;49.912;10.924;2023-06-01T07:29:17;4.23;;;1.73;;
3133;SDS011;1577;49.912;10.924;2023-06-01T07:31:42;4.73;;;1.73;;
3133;SDS011;1577;49.912;10.924;2023-06-01T07:34:08;6.53;;;1.90;;
3133;SDS011;1577;49.912;10.924;2023-06-01T07:36:34;9.83;;;2.17;;
3133;SDS011;1577;49.912;10.924;2023-06-01T07:39:02;4.30;;;1.67;;
3133;SDS011;1577;49.912;10.924;2023-06-01T07:41:32;6.77;;;1.80;;
3133;SDS011;1577;49.912;10.924;2023-06-01T07:43:58;6.47;;;1.40;;
3133;SDS011;1577;49.912;10.924;2023-06-01T07:46:24;4.83;;;1.50;;
3133;SDS011;1577;49.912;10.924;2023-06-01T07:48:49;10.70;;;3.10;;
3133;SDS011;1577;49.912;10.924;2023-06-01T07:51:15;8.30;;;2.20;;
3133;SDS011;1577;49.912;10.924;2023-06-01T07:53:41;3.07;;;1.50;;
3133;SDS011;1577;49.912;10.924;2023-06-01T07:56:07;3.67;;;1.80;;
3133;SDS011;1577;49.912;10.924;2023-06-01T07:58:32;5.07;;;2.60;;
3133;SDS011;1577;49.912;10.924;2023-06-01T08:00:58;3.23;;;1.63;;
3133;SDS011;1577;49.912;10.924;2023-06-01T08:03:23;3.03;;;1.50;;
3133;SDS011;1577;49.912;10.924;2023-06-01T08:05:50;2.07;;;1.23;;
3133;SDS011;1577;49.912;10.924;2023-06-01T08:08:22;6.70;;;1.30;;
3133;SDS011;1577;49.912;10.924;2023-06-01T08:10:48;2.57;;;1.30;;
3133;SDS011;1577;49.912;10.924;2023-06-01T08:13:17;3.53;;;1.40;;
3133;SDS011;1577;49.912;10.924;2023-06-01T08:15:43;4.00;;;1.40;;
3133;SDS011;1577;49.912;10.924;2023-06-01T08:18:12;3.00;;;1.43;;
3133;SDS011;1577;49.912;10.924;2023-06-01T08:20:40;3.33;;;1.67;;
3133;SDS011;1577;49.912;10.924;2023-06-01T08:23:07;3.90;;;1.40;;
3133;SDS011;1577;49.912;10.924;2023-06-01T08:25:33;3.10;;;1.60;;
3133;SDS011;1577;49.912;10.924;2023-06-01T08:27:58;5.47;;;1.93;;
3133;SDS011;1577;49.912;10.924;2023-06-01T08:30:24;3.40;;;1.53;;
3133;SDS011;1577;49.912;10.924;2023-06-01T08:32:51;4.47;;;1.73;;
3133;SDS011;1577;49.912;10.924;2023-06-01T08:35:16;3.97;;;1.50;;
3133;SDS011;1577;49.912;10.924;2023-06-01T08:37:43;3.40;;;1.40;;
3133;SDS011;1577;49.912;10.924;2023-06-01T08:40:09;3.97;;;1.30;;
3133;SDS011;1577;49.912;10.924;2023-06-01T08:45:11;4.43;;;1.53;;
3133;SDS011;1577;49.912;10.924;2023-06-01T08:47:40;3.93;;;1.57;;
3133;SDS011;1577;49.912;10.924;2023-06-01T08:50:08;2.90;;;1.57;;
3133;SDS011;1577;49.912;10.924;2023-06-01T08:52:35;4.30;;;1.50;;
3133;SDS011;1577;49.912;10.924;2023-06-01T08:55:02;2.93;;;1.60;;
3133;SDS011;1577;49.912;10.924;2023-06-01T08:57:29;3.73;;;1.43;;
3133;SDS011;1577;49.912;10.924;2023-06-01T08:59:56;2.53;;;1.50;;
3133;SDS011;1577;49.912;10.924;2023-06-01T09:02:23;5.90;;;1.50;;
3133;SDS011;1577;49.912;10.924;2023-06-01T09:04:50;5.93;;;1.93;;
3133;SDS011;1577;49.912;10.924;2023-06-01T09:07:15;11.43;;;1.73;;
3133;SDS011;1577;49.912;10.924;2023-06-01T09:09:42;2.77;;;1.27;;
3133;SDS011;1577;49.912;10.924;2023-06-01T09:14:46;5.07;;;1.43;;
3133;SDS011;1577;49.912;10.924;2023-06-01T09:17:19;3.30;;;1.27;;
3133;SDS011;1577;49.912;10.924;2023-06-01T09:19:47;3.53;;;1.37;;
3133;SDS011;1577;49.912;10.924;2023-06-01T09:22:14;2.50;;;1.43;;
3133;SDS011;1577;49.912;10.924;2023-06-01T09:24:40;4.83;;;1.43;;
3133;SDS011;1577;49.912;10.924;2023-06-01T09:27:22;2.07;;;1.17;;
3133;SDS011;1577;49.912;10.924;2023-06-01T09:29:57;3.17;;;1.37;;
3133;SDS011;1577;49.912;10.924;2023-06-01T09:32:26;2.00;;;1.13;;
3133;SDS011;1577;49.912;10.924;2023-06-01T09:34:53;3.00;;;1.33;;
3133;SDS011;1577;49.912;10.924;2023-06-01T09:37:20;10.10;;;1.30;;
3133;SDS011;1577;49.912;10.924;2023-06-01T09:39:45;3.40;;;1.47;;
3133;SDS011;1577;49.912;10.924;2023-06-01T09:42:11;3.20;;;1.60;;
3133;SDS011;1577;49.912;10.924;2023-06-01T09:44:38;2.23;;;1.10;;
3133;SDS011;1577;49.912;10.924;2023-06-01T09:47:06;2.00;;;1.27;;
3133;SDS011;1577;49.912;10.924;2023-06-01T09:49:43;2.13;;;1.10;;
3133;SDS011;1577;49.912;10.924;2023-06-01T09:57:05;3.00;;;1.10;;
3133;SDS011;1577;49.912;10.924;2023-06-01T10:02:05;3.00;;;0.90;;
3133;SDS011;1577;49.912;10.924;2023-06-01T10:04:35;2.50;;;1.03;;
3133;SDS011;1577;49.912;10.924;2023-06-01T10:07:04;1.77;;;1.10;;
3133;SDS011;1577;49.912;10.924;2023-06-01T10:09:31;3.03;;;1.27;;
3133;SDS011;1577;49.912;10.924;2023-06-01T10:11:59;2.47;;;1.20;;
3133;SDS011;1577;49.912;10.924;2023-06-01T10:14:25;1.93;;;1.10;;
3133;SDS011;1577;49.912;10.924;2023-06-01T10:16:51;3.20;;;1.47;;
3133;SDS011;1577;49.912;10.924;2023-06-01T10:19:19;4.53;;;1.33;;
3133;SDS011;1577;49.912;10.924;2023-06-01T10:21:46;3.83;;;1.43;;
3133;SDS011;1577;49.912;10.924;2023-06-01T10:24:13;3.10;;;1.33;;
3133;SDS011;1577;49.912;10.924;2023-06-01T10:29:35;2.20;;;1.40;;
3133;SDS011;1577;49.912;10.924;2023-06-01T10:32:01;3.80;;;1.37;;
3133;SDS011;1577;49.912;10.924;2023-06-01T10:34:41;4.00;;;1.30;;
3133;SDS011;1577;49.912;10.924;2023-06-01T10:37:13;5.80;;;1.50;;
3133;SDS011;1577;49.912;10.924;2023-06-01T10:39:40;2.73;;;1.37;;
3133;SDS011;1577;49.912;10.924;2023-06-01T10:42:34;2.77;;;1.40;;
3133;SDS011;1577;49.912;10.924;2023-06-01T10:45:01;4.17;;;1.10;;
3133;SDS011;1577;49.912;10.924;2023-06-01T10:52:35;2.87;;;1.37;;
3133;SDS011;1577;49.912;10.924;2023-06-01T10:57:31;2.90;;;1.30;;
3133;SDS011;1577;49.912;10.924;2023-06-01T11:00:13;2.23;;;1.13;;
3133;SDS011;1577;49.912;10.924;2023-06-01T11:08:49;4.30;;;1.80;;
3133;SDS011;1577;49.912;10.924;2023-06-01T11:10:55;4.10;;;1.60;;
3133;SDS011;1577;49.912;10.924;2023-06-01T11:24:00;3.13;;;1.07;;
3133;SDS011;1577;49.912;10.924;2023-06-01T11:26:30;2.60;;;1.30;;
3133;SDS011;1577;49.912;10.924;2023-06-01T11:31:50;2.50;;;1.40;;
3133;SDS011;1577;49.912;10.924;2023-06-01T11:34:19;1.93;;;1.10;;
3133;SDS011;1577;49.912;10.924;2023-06-01T11:36:54;1.77;;;1.00;;
3133;SDS011;1577;49.912;10.924;2023-06-01T11:39:24;2.47;;;1.30;;
3133;SDS011;1577;49.912;10.924;2023-06-01T11:44:30;4.67;;;1.40;;
3133;SDS011;1577;49.912;10.924;2023-06-01T11:46:56;3.10;;;1.50;;
3133;SDS011;1577;49.912;10.924;2023-06-01T11:49:23;3.43;;;1.70;;
3133;SDS011;1577;49.912;10.924;2023-06-01T11:51:49;2.30;;;1.23;;
3133;SDS011;1577;49.912;10.924;2023-06-01T11:54:16;2.17;;;1.17;;
3133;SDS011;1577;49.912;10.924;2023-06-01T11:56:46;4.03;;;0.97;;
3133;SDS011;1577;49.912;10.924;2023-06-01T11:59:11;3.70;;;1.37;;
3133;SDS011;1577;49.912;10.924;2023-06-01T12:01:45;2.43;;;1.10;;
3133;SDS011;1577;49.912;10.924;2023-06-01T12:04:18;2.67;;;1.40;;
3133;SDS011;1577;49.912;10.924;2023-06-01T12:06:48;3.00;;;1.30;;
3133;SDS011;1577;49.912;10.924;2023-06-01T12:09:15;2.80;;;1.20;;
3133;SDS011;1577;49.912;10.924;2023-06-01T12:11:42;3.77;;;1.23;;
3133;SDS011;1577;49.912;10.924;2023-06-01T12:14:12;3.20;;;1.50;;
3133;SDS011;1577;49.912;10.924;2023-06-01T12:16:55;5.83;;;1.37;;
3133;SDS011;1577;49.912;10.924;2023-06-01T12:19:23;3.07;;;1.60;;
3133;SDS011;1577;49.912;10.924;2023-06-01T12:21:50;2.70;;;1.20;;
3133;SDS011;1577;49.912;10.924;2023-06-01T12:24:17;1.97;;;1.20;;
3133;SDS011;1577;49.912;10.924;2023-06-01T12:26:44;2.07;;;1.20;;
3133;SDS011;1577;49.912;10.924;2023-06-01T12:29:11;3.30;;;1.83;;
3133;SDS011;1577;49.912;10.924;2023-06-01T12:31:36;4.57;;;1.30;;
3133;SDS011;1577;49.912;10.924;2023-06-01T12:34:02;3.23;;;1.47;;
3133;SDS011;1577;49.912;10.924;2023-06-01T12:36:33;3.73;;;1.73;;
3133;SDS011;1577;49.912;10.924;2023-06-01T12:39:00;2.70;;;1.43;;
3133;SDS011;1577;49.912;10.924;2023-06-01T12:41:28;2.20;;;1.37;;
3133;SDS011;1577;49.912;10.924;2023-06-01T12:43:54;2.60;;;1.23;;
3133;SDS011;1577;49.912;10.924;2023-06-01T12:46:21;5.43;;;1.30;;
3133;SDS011;1577;49.912;10.924;2023-06-01T12:49:11;3.10;;;1.33;;
3133;SDS011;1577;49.912;10.924;2023-06-01T12:51:37;2.77;;;1.23;;
3133;SDS011;1577;49.912;10.924;2023-06-01T12:54:03;2.73;;;1.10;;
3133;SDS011;1577;49.912;10.924;2023-06-01T12:56:28;2.47;;;1.10;;
3133;SDS011;1577;49.912;10.924;2023-06-01T12:58:54;3.90;;;1.80;;
3133;SDS011;1577;49.912;10.924;2023-06-01T13:01:20;3.47;;;1.70;;
3133;SDS011;1577;49.912;10.924;2023-06-01T13:03:46;1.77;;;1.10;;
3133;SDS011;1577;49.912;10.924;2023-06-01T13:06:12;3.27;;;1.50;;
3133;SDS011;1577;49.912;10.924;2023-06-01T13:08:41;2.37;;;1.63;;
3133;SDS011;1577;49.912;10.924;2023-06-01T13:11:07;2.80;;;1.50;;
3133;SDS011;1577;49.912;10.924;2023-06-01T13:13:33;5.37;;;1.23;;
3133;SDS011;1577;49.912;10.924;2023-06-01T13:16:03;3.40;;;1.43;;
3133;SDS011;1577;49.912;10.924;2023-06-01T13:18:29;5.03;;;1.10;;
3133;SDS011;1577;49.912;10.924;2023-06-01T13:20:55;3.20;;;1.40;;
3133;SDS011;1577;49.912;10.924;2023-06-01T13:23:23;3.73;;;1.50;;
3133;SDS011;1577;49.912;10.924;2023-06-01T13:25:49;2.30;;;1.30;;
3133;SDS011;1577;49.912;10.924;2023-06-01T13:28:14;4.60;;;1.57;;
3133;SDS011;1577;49.912;10.924;2023-06-01T13:30:40;4.13;;;1.10;;
3133;SDS011;1577;49.912;10.924;2023-06-01T13:33:07;3.80;;;1.10;;
3133;SDS011;1577;49.912;10.924;2023-06-01T13:35:32;3.30;;;1.27;;
3133;SDS011;1577;49.912;10.924;2023-06-01T13:37:58;4.80;;;1.60;;
3133;SDS011;1577;49.912;10.924;2023-06-01T13:40:24;2.80;;;1.20;;
3133;SDS011;1577;49.912;10.924;2023-06-01T13:42:50;8.07;;;1.47;;
3133;SDS011;1577;49.912;10.924;2023-06-01T13:45:18;7.03;;;1.30;;
3133;SDS011;1577;49.912;10.924;2023-06-01T13:47:44;2.27;;;1.20;;
3133;SDS011;1577;49.912;10.924;2023-06-01T13:50:10;4.60;;;1.70;;
3133;SDS011;1577;49.912;10.924;2023-06-01T13:52:37;2.90;;;1.30;;
3133;SDS011;1577;49.912;10.924;2023-06-01T13:55:03;3.70;;;1.50;;
3133;SDS011;1577;49.912;10.924;2023-06-01T13:57:29;2.70;;;1.37;;
3133;SDS011;1577;49.912;10.924;2023-06-01T13:59:55;3.83;;;1.43;;
3133;SDS011;1577;49.912;10.924;2023-06-01T14:02:27;3.33;;;1.30;;
3133;SDS011;1577;49.912;10.924;2023-06-01T14:04:53;2.13;;;1.00;;
3133;SDS011;1577;49.912;10.924;2023-06-01T14:07:19;3.80;;;1.50;;
3133;SDS011;1577;49.912;10.924;2023-06-01T14:09:44;3.50;;;1.40;;
3133;SDS011;1577;49.912;10.924;2023-06-01T14:12:10;7.03;;;1.50;;
3133;SDS011;1577;49.912;10.924;2023-06-01T14:14:36;2.30;;;1.37;;
3133;SDS011;1577;49.912;10.924;2023-06-01T14:17:02;3.30;;;1.10;;
3133;SDS011;1577;49.912;10.924;2023-06-01T14:19:28;3.63;;;2.30;;
3133;SDS011;1577;49.912;10.924;2023-06-01T14:21:53;3.30;;;1.40;;
3133;SDS011;1577;49.912;10.924;2023-06-01T14:24:19;4.33;;;1.67;;
3133;SDS011;1577;49.912;10.924;2023-06-01T14:26:45;2.93;;;1.33;;
3133;SDS011;1577;49.912;10.924;2023-06-01T14:29:11;3.83;;;1.13;;
3133;SDS011;1577;49.912;10.924;2023-06-01T14:31:37;4.23;;;1.33;;
3133;SDS011;1577;49.912;10.924;2023-06-01T14:34:02;3.17;;;1.30;;
3133;SDS011;1577;49.912;10.924;2023-06-01T14:36:28;2.90;;;1.40;;
3133;SDS011;1577;49.912;10.924;2023-06-01T14:38:54;6.90;;;1.30;;
3133;SDS011;1577;49.912;10.924;2023-06-01T14:41:19;3.83;;;1.30;;
3133;SDS011;1577;49.912;10.924;2023-06-01T14:43:45;3.93;;;1.57;;
3133;SDS011;1577;49.912;10.924;2023-06-01T14:46:11;3.40;;;1.20;;
3133;SDS011;1577;49.912;10.924;2023-06-01T14:48:36;3.50;;;1.77;;
3133;SDS011;1577;49.912;10.924;2023-06-01T14:51:02;4.40;;;1.33;;
3133;SDS011;1577;49.912;10.924;2023-06-01T14:53:28;2.70;;;1.27;;
3133;SDS011;1577;49.912;10.924;2023-06-01T14:55:54;2.80;;;1.53;;
3133;SDS011;1577;49.912;10.924;2023-06-01T14:58:19;3.70;;;1.67;;
3133;SDS011;1577;49.912;10.924;2023-06-01T15:00:45;2.93;;;1.63;;
3133;SDS011;1577;49.912;10.924;2023-06-01T15:03:12;4.33;;;1.40;;
3133;SDS011;1577;49.912;10.924;2023-06-01T15:05:37;1.90;;;1.30;;
3133;SDS011;1577;49.912;10.924;2023-06-01T15:08:05;3.63;;;1.37;;
3133;SDS011;1577;49.912;10.924;2023-06-01T15:10:32;5.70;;;1.30;;
3133;SDS011;1577;49.912;10.924;2023-06-01T15:12:57;2.70;;;1.40;;
3133;SDS011;1577;49.912;10.924;2023-06-01T15:15:23;3.30;;;1.33;;
3133;SDS011;1577;49.912;10.924;2023-06-01T15:17:49;2.23;;;1.20;;
3133;SDS011;1577;49.912;10.924;2023-06-01T15:20:14;2.20;;;1.00;;
3133;SDS011;1577;49.912;10.924;2023-06-01T15:22:40;2.10;;;1.10;;
3133;SDS011;1577;49.912;10.924;2023-06-01T15:25:06;5.20;;;1.13;;
3133;SDS011;1577;49.912;10.924;2023-06-01T15:27:32;1.80;;;1.00;;
3133;SDS011;1577;49.912;10.924;2023-06-01T15:29:58;3.30;;;1.50;;
3133;SDS011;1577;49.912;10.924;2023-06-01T15:32:23;2.00;;;1.13;;
3133;SDS011;1577;49.912;10.924;2023-06-01T15:34:49;2.97;;;1.40;;
3133;SDS011;1577;49.912;10.924;2023-06-01T15:37:14;2.60;;;1.30;;
3133;SDS011;1577;49.912;10.924;2023-06-01T15:39:40;2.90;;;1.30;;
3133;SDS011;1577;49.912;10.924;2023-06-01T15:42:09;2.60;;;1.50;;
3133;SDS011;1577;49.912;10.924;2023-06-01T15:44:38;3.40;;;1.10;;
3133;SDS011;1577;49.912;10.924;2023-06-01T15:47:05;2.83;;;1.50;;
3133;SDS011;1577;49.912;10.924;2023-06-01T15:49:32;2.57;;;1.60;;
3133;SDS011;1577;49.912;10.924;2023-06-01T15:51:57;2.60;;;1.47;;
3133;SDS011;1577;49.912;10.924;2023-06-01T15:54:23;2.63;;;1.30;;